sensor_id;sensor_type;location;lat;lon;timestamp;temperature;humidity
19952;DHT22;10137;49.406;19.484;2024-02-21T00:01:24;3.40;99.90
19952;DHT22;10137;49.406;19.484;2024-02-21T00:03:50;3.40;99.90
19952;DHT22;10137;49.406;19.484;2024-02-21T00:06:17;3.50;99.90
19952;DHT22;10137;49.406;19.484;2024-02-21T00:08:45;3.60;99.90
19952;DHT22;10137;49.406;19.484;2024-02-21T00:11:12;3.50;99.90
19952;DHT22;10137;49.406;19.484;2024-02-21T00:13:39;3.40;99.90
19952;DHT22;10137;49.406;19.484;2024-02-21T00:16:06;3.40;99.90
19952;DHT22;10137;49.406;19.484;2024-02-21T00:18:33;3.50;99.90
19952;DHT22;10137;49.406;19.484;2024-02-21T00:21:00;3.60;99.90
19952;DHT22;10137;49.406;19.484;2024-02-21T00:23:27;3.50;99.90
19952;DHT22;10137;49.406;19.484;2024-02-21T00:25:56;3.50;99.90
19952;DHT22;10137;49.406;19.484;2024-02-21T00:28:23;3.60;99.90
19952;DHT22;10137;49.406;19.484;2024-02-21T00:30:49;3.60;99.90
19952;DHT22;10137;49.406;19.484;2024-02-21T00:33:18;3.70;99.90
19952;DHT22;10137;49.406;19.484;2024-02-21T00:35:45;3.70;99.90
19952;DHT22;10137;49.406;19.484;2024-02-21T00:38:12;3.60;99.90
19952;DHT22;10137;49.406;19.484;2024-02-21T00:40:39;3.60;99.90
19952;DHT22;10137;49.406;19.484;2024-02-21T00:43:07;3.50;99.90
19952;DHT22;10137;49.406;19.484;2024-02-21T00:45:34;3.40;99.90
19952;DHT22;10137;49.406;19.484;2024-02-21T00:48:01;3.40;99.90
19952;DHT22;10137;49.406;19.484;2024-02-21T00:50:28;3.40;99.90
19952;DHT22;10137;49.406;19.484;2024-02-21T00:52:54;3.50;99.90
19952;DHT22;10137;49.406;19.484;2024-02-21T00:55:21;3.50;99.90
19952;DHT22;10137;49.406;19.484;2024-02-21T00:57:48;3.50;99.90
19952;DHT22;10137;49.406;19.484;2024-02-21T01:00:17;3.50;99.90
19952;DHT22;10137;49.406;19.484;2024-02-21T01:02:44;3.50;99.90
19952;DHT22;10137;49.406;19.484;2024-02-21T01:05:11;3.60;99.90
19952;DHT22;10137;49.406;19.484;2024-02-21T01:07:38;3.60;99.90
19952;DHT22;10137;49.406;19.484;2024-02-21T01:10:06;3.60;99.90
19952;DHT22;10137;49.406;19.484;2024-02-21T01:12:33;3.60;99.90
19952;DHT22;10137;49.406;19.484;2024-02-21T01:15:00;3.60;99.90
19952;DHT22;10137;49.406;19.484;2024-02-21T01:17:28;3.60;99.90
19952;DHT22;10137;49.406;19.484;2024-02-21T01:19:55;3.40;99.90
19952;DHT22;10137;49.406;19.484;2024-02-21T01:22:22;3.30;99.90
19952;DHT22;10137;49.406;19.484;2024-02-21T01:24:49;3.30;99.90
19952;DHT22;10137;49.406;19.484;2024-02-21T01:27:16;3.40;99.90
19952;DHT22;10137;49.406;19.484;2024-02-21T01:29:42;3.30;99.90
19952;DHT22;10137;49.406;19.484;2024-02-21T01:32:09;3.40;99.90
19952;DHT22;10137;49.406;19.484;2024-02-21T01:34:37;3.20;99.90
19952;DHT22;10137;49.406;19.484;2024-02-21T01:37:06;3.10;99.90
19952;DHT22;10137;49.406;19.484;2024-02-21T01:39:33;3.20;99.90
19952;DHT22;10137;49.406;19.484;2024-02-21T01:42:00;3.20;99.90
19952;DHT22;10137;49.406;19.484;2024-02-21T01:44:28;3.30;99.90
19952;DHT22;10137;49.406;19.484;2024-02-21T01:46:57;3.30;99.90
19952;DHT22;10137;49.406;19.484;2024-02-21T01:49:24;3.30;99.90
19952;DHT22;10137;49.406;19.484;2024-02-21T01:51:55;3.40;99.90
19952;DHT22;10137;49.406;19.484;2024-02-21T01:54:22;3.40;99.90
19952;DHT22;10137;49.406;19.484;2024-02-21T01:56:49;3.30;99.90
19952;DHT22;10137;49.406;19.484;2024-02-21T01:59:18;3.20;99.90
19952;DHT22;10137;49.406;19.484;2024-02-21T02:01:46;3.20;99.90
19952;DHT22;10137;49.406;19.484;2024-02-21T02:04:13;3.30;99.90
19952;DHT22;10137;49.406;19.484;2024-02-21T02:06:43;3.40;99.90
19952;DHT22;10137;49.406;19.484;2024-02-21T02:09:11;3.40;99.90
19952;DHT22;10137;49.406;19.484;2024-02-21T02:11:40;3.30;99.90
19952;DHT22;10137;49.406;19.484;2024-02-21T02:14:07;3.30;99.90
19952;DHT22;10137;49.406;19.484;2024-02-21T02:16:34;3.30;99.90
19952;DHT22;10137;49.406;19.484;2024-02-21T02:19:03;3.30;99.90
19952;DHT22;10137;49.406;19.484;2024-02-21T02:21:32;3.30;99.90
19952;DHT22;10137;49.406;19.484;2024-02-21T02:24:10;3.30;99.90
19952;DHT22;10137;49.406;19.484;2024-02-21T02:26:37;3.10;99.90
19952;DHT22;10137;49.406;19.484;2024-02-21T02:29:04;3.10;99.90
19952;DHT22;10137;49.406;19.484;2024-02-21T02:31:31;2.90;99.90
19952;DHT22;10137;49.406;19.484;2024-02-21T02:33:59;2.90;99.90
19952;DHT22;10137;49.406;19.484;2024-02-21T02:36:25;2.90;99.90
19952;DHT22;10137;49.406;19.484;2024-02-21T02:38:52;3.00;99.90
19952;DHT22;10137;49.406;19.484;2024-02-21T02:41:20;2.90;99.90
19952;DHT22;10137;49.406;19.484;2024-02-21T02:43:47;2.90;99.90
19952;DHT22;10137;49.406;19.484;2024-02-21T02:46:14;2.90;99.90
19952;DHT22;10137;49.406;19.484;2024-02-21T02:48:41;2.90;99.90
19952;DHT22;10137;49.406;19.484;2024-02-21T02:51:08;3.00;99.90
19952;DHT22;10137;49.406;19.484;2024-02-21T02:53:34;3.00;99.90
19952;DHT22;10137;49.406;19.484;2024-02-21T02:56:01;3.00;99.90
19952;DHT22;10137;49.406;19.484;2024-02-21T02:58:30;2.90;99.90
19952;DHT22;10137;49.406;19.484;2024-02-21T03:00:56;2.90;99.90
19952;DHT22;10137;49.406;19.484;2024-02-21T03:03:23;2.70;99.90
19952;DHT22;10137;49.406;19.484;2024-02-21T03:05:50;2.50;99.90
19952;DHT22;10137;49.406;19.484;2024-02-21T03:08:17;2.50;99.90
19952;DHT22;10137;49.406;19.484;2024-02-21T03:10:44;2.50;99.90
19952;DHT22;10137;49.406;19.484;2024-02-21T03:13:10;2.40;99.90
19952;DHT22;10137;49.406;19.484;2024-02-21T03:15:39;2.40;99.90
19952;DHT22;10137;49.406;19.484;2024-02-21T03:18:06;2.20;99.90
19952;DHT22;10137;49.406;19.484;2024-02-21T03:20:33;2.20;99.90
19952;DHT22;10137;49.406;19.484;2024-02-21T03:22:59;2.20;99.90
19952;DHT22;10137;49.406;19.484;2024-02-21T03:25:26;2.10;99.90
19952;DHT22;10137;49.406;19.484;2024-02-21T03:27:53;2.00;99.90
19952;DHT22;10137;49.406;19.484;2024-02-21T03:30:20;2.00;99.90
19952;DHT22;10137;49.406;19.484;2024-02-21T03:32:48;2.00;99.90
19952;DHT22;10137;49.406;19.484;2024-02-21T03:35:15;2.10;99.90
19952;DHT22;10137;49.406;19.484;2024-02-21T03:37:44;2.30;99.90
19952;DHT22;10137;49.406;19.484;2024-02-21T03:40:11;2.30;99.90
19952;DHT22;10137;49.406;19.484;2024-02-21T03:42:38;2.40;99.90
19952;DHT22;10137;49.406;19.484;2024-02-21T03:45:06;2.50;99.90
19952;DHT22;10137;49.406;19.484;2024-02-21T03:47:33;2.50;99.90
19952;DHT22;10137;49.406;19.484;2024-02-21T03:50:01;2.50;99.90
19952;DHT22;10137;49.406;19.484;2024-02-21T03:52:28;2.50;99.90
19952;DHT22;10137;49.406;19.484;2024-02-21T03:54:55;2.50;99.90
19952;DHT22;10137;49.406;19.484;2024-02-21T03:57:22;2.50;99.90
19952;DHT22;10137;49.406;19.484;2024-02-21T03:59:50;2.40;99.90
19952;DHT22;10137;49.406;19.484;2024-02-21T04:02:17;2.30;99.90
19952;DHT22;10137;49.406;19.484;2024-02-21T04:04:44;2.30;99.90
19952;DHT22;10137;49.406;19.484;2024-02-21T04:07:13;2.30;99.90
19952;DHT22;10137;49.406;19.484;2024-02-21T04:09:40;2.30;99.90
19952;DHT22;10137;49.406;19.484;2024-02-21T04:12:08;2.40;99.90
19952;DHT22;10137;49.406;19.484;2024-02-21T04:14:35;2.40;99.90
19952;DHT22;10137;49.406;19.484;2024-02-21T04:17:02;2.40;99.90
19952;DHT22;10137;49.406;19.484;2024-02-21T04:19:30;2.40;99.90
19952;DHT22;10137;49.406;19.484;2024-02-21T04:21:58;2.50;99.90
19952;DHT22;10137;49.406;19.484;2024-02-21T04:24:26;2.50;99.90
19952;DHT22;10137;49.406;19.484;2024-02-21T04:26:53;2.40;99.90
19952;DHT22;10137;49.406;19.484;2024-02-21T04:29:20;2.40;99.90
19952;DHT22;10137;49.406;19.484;2024-02-21T04:31:50;2.40;99.90
19952;DHT22;10137;49.406;19.484;2024-02-21T04:34:17;2.40;99.90
19952;DHT22;10137;49.406;19.484;2024-02-21T04:36:44;2.30;99.90
19952;DHT22;10137;49.406;19.484;2024-02-21T04:39:11;2.30;99.90
19952;DHT22;10137;49.406;19.484;2024-02-21T04:41:39;2.40;99.90
19952;DHT22;10137;49.406;19.484;2024-02-21T04:44:06;2.40;99.90
19952;DHT22;10137;49.406;19.484;2024-02-21T04:46:33;2.40;99.90
19952;DHT22;10137;49.406;19.484;2024-02-21T04:49:00;2.40;99.90
19952;DHT22;10137;49.406;19.484;2024-02-21T04:51:26;2.40;99.90
19952;DHT22;10137;49.406;19.484;2024-02-21T04:53:53;2.30;99.90
19952;DHT22;10137;49.406;19.484;2024-02-21T04:56:20;2.40;99.90
19952;DHT22;10137;49.406;19.484;2024-02-21T04:58:49;2.40;99.90
19952;DHT22;10137;49.406;19.484;2024-02-21T05:01:16;2.40;99.90
19952;DHT22;10137;49.406;19.484;2024-02-21T05:03:42;2.40;99.90
19952;DHT22;10137;49.406;19.484;2024-02-21T05:06:10;2.50;99.90
19952;DHT22;10137;49.406;19.484;2024-02-21T05:08:37;2.50;99.90
19952;DHT22;10137;49.406;19.484;2024-02-21T05:11:03;2.50;99.90
19952;DHT22;10137;49.406;19.484;2024-02-21T05:13:30;2.40;99.90
19952;DHT22;10137;49.406;19.484;2024-02-21T05:15:58;2.40;99.90
19952;DHT22;10137;49.406;19.484;2024-02-21T05:18:27;2.20;99.90
19952;DHT22;10137;49.406;19.484;2024-02-21T05:20:54;2.10;99.90
19952;DHT22;10137;49.406;19.484;2024-02-21T05:23:20;2.10;99.90
19952;DHT22;10137;49.406;19.484;2024-02-21T05:25:47;2.10;99.90
19952;DHT22;10137;49.406;19.484;2024-02-21T05:28:14;2.10;99.90
19952;DHT22;10137;49.406;19.484;2024-02-21T05:30:41;2.00;99.90
19952;DHT22;10137;49.406;19.484;2024-02-21T05:33:10;2.00;99.90
19952;DHT22;10137;49.406;19.484;2024-02-21T05:35:37;2.10;99.90
19952;DHT22;10137;49.406;19.484;2024-02-21T05:38:03;2.10;99.90
19952;DHT22;10137;49.406;19.484;2024-02-21T05:40:36;2.20;99.90
19952;DHT22;10137;49.406;19.484;2024-02-21T05:43:03;2.20;99.90
19952;DHT22;10137;49.406;19.484;2024-02-21T05:45:30;2.30;99.90
19952;DHT22;10137;49.406;19.484;2024-02-21T05:47:57;2.30;99.90
19952;DHT22;10137;49.406;19.484;2024-02-21T05:50:25;2.20;99.90
19952;DHT22;10137;49.406;19.484;2024-02-21T05:52:54;2.30;99.90
19952;DHT22;10137;49.406;19.484;2024-02-21T05:55:21;2.30;99.90
19952;DHT22;10137;49.406;19.484;2024-02-21T05:57:48;2.20;99.90
19952;DHT22;10137;49.406;19.484;2024-02-21T06:00:15;2.30;99.90
19952;DHT22;10137;49.406;19.484;2024-02-21T06:02:42;2.40;99.90
19952;DHT22;10137;49.406;19.484;2024-02-21T06:05:09;2.40;99.90
19952;DHT22;10137;49.406;19.484;2024-02-21T06:07:38;2.50;99.90
19952;DHT22;10137;49.406;19.484;2024-02-21T06:10:06;2.50;99.90
19952;DHT22;10137;49.406;19.484;2024-02-21T06:12:33;2.50;99.90
19952;DHT22;10137;49.406;19.484;2024-02-21T06:15:03;2.50;99.90
19952;DHT22;10137;49.406;19.484;2024-02-21T06:17:30;2.50;99.90
19952;DHT22;10137;49.406;19.484;2024-02-21T06:19:56;2.50;99.90
19952;DHT22;10137;49.406;19.484;2024-02-21T06:22:23;2.50;99.90
19952;DHT22;10137;49.406;19.484;2024-02-21T06:24:51;2.50;99.90
19952;DHT22;10137;49.406;19.484;2024-02-21T06:27:19;2.50;99.90
19952;DHT22;10137;49.406;19.484;2024-02-21T06:29:46;2.60;99.90
19952;DHT22;10137;49.406;19.484;2024-02-21T06:32:13;2.60;99.90
19952;DHT22;10137;49.406;19.484;2024-02-21T06:34:40;2.80;99.90
19952;DHT22;10137;49.406;19.484;2024-02-21T06:37:07;3.00;99.90
19952;DHT22;10137;49.406;19.484;2024-02-21T06:39:34;3.10;99.90
19952;DHT22;10137;49.406;19.484;2024-02-21T06:42:04;3.20;99.90
19952;DHT22;10137;49.406;19.484;2024-02-21T06:44:31;3.40;99.90
19952;DHT22;10137;49.406;19.484;2024-02-21T06:47:02;3.60;99.90
19952;DHT22;10137;49.406;19.484;2024-02-21T06:49:29;3.90;99.90
19952;DHT22;10137;49.406;19.484;2024-02-21T06:51:57;4.00;99.90
19952;DHT22;10137;49.406;19.484;2024-02-21T06:54:24;4.00;99.90
19952;DHT22;10137;49.406;19.484;2024-02-21T06:56:51;4.00;99.90
19952;DHT22;10137;49.406;19.484;2024-02-21T06:59:19;4.00;99.90
19952;DHT22;10137;49.406;19.484;2024-02-21T07:01:46;3.90;99.90
19952;DHT22;10137;49.406;19.484;2024-02-21T07:04:13;3.90;99.90
19952;DHT22;10137;49.406;19.484;2024-02-21T07:06:41;4.00;99.90
19952;DHT22;10137;49.406;19.484;2024-02-21T07:09:08;4.30;99.90
19952;DHT22;10137;49.406;19.484;2024-02-21T07:11:34;4.60;99.90
19952;DHT22;10137;49.406;19.484;2024-02-21T07:14:01;4.80;99.90
19952;DHT22;10137;49.406;19.484;2024-02-21T07:16:29;5.10;99.90
19952;DHT22;10137;49.406;19.484;2024-02-21T07:18:58;5.30;99.90
19952;DHT22;10137;49.406;19.484;2024-02-21T07:21:25;5.60;99.90
19952;DHT22;10137;49.406;19.484;2024-02-21T07:23:52;5.80;99.90
19952;DHT22;10137;49.406;19.484;2024-02-21T07:26:19;6.10;99.90
19952;DHT22;10137;49.406;19.484;2024-02-21T07:28:45;6.30;99.90
19952;DHT22;10137;49.406;19.484;2024-02-21T07:31:12;6.60;99.90
19952;DHT22;10137;49.406;19.484;2024-02-21T07:33:41;6.80;99.90
19952;DHT22;10137;49.406;19.484;2024-02-21T07:36:09;7.10;99.90
19952;DHT22;10137;49.406;19.484;2024-02-21T07:38:37;7.40;99.90
19952;DHT22;10137;49.406;19.484;2024-02-21T07:41:04;7.70;99.90
19952;DHT22;10137;49.406;19.484;2024-02-21T07:43:30;7.90;99.90
19952;DHT22;10137;49.406;19.484;2024-02-21T07:45:57;7.90;99.90
19952;DHT22;10137;49.406;19.484;2024-02-21T07:48:24;8.00;99.90
19952;DHT22;10137;49.406;19.484;2024-02-21T07:50:53;8.20;99.90
19952;DHT22;10137;49.406;19.484;2024-02-21T07:53:20;8.30;99.90
19952;DHT22;10137;49.406;19.484;2024-02-21T07:55:47;8.50;99.90
19952;DHT22;10137;49.406;19.484;2024-02-21T07:58:14;8.70;99.90
19952;DHT22;10137;49.406;19.484;2024-02-21T08:00:41;8.90;99.90
19952;DHT22;10137;49.406;19.484;2024-02-21T08:03:07;9.00;99.90
19952;DHT22;10137;49.406;19.484;2024-02-21T08:05:35;9.10;99.90
19952;DHT22;10137;49.406;19.484;2024-02-21T08:08:03;9.30;99.90
19952;DHT22;10137;49.406;19.484;2024-02-21T08:10:30;9.20;99.90
19952;DHT22;10137;49.406;19.484;2024-02-21T08:12:57;9.30;99.90
19952;DHT22;10137;49.406;19.484;2024-02-21T08:15:24;9.30;99.90
19952;DHT22;10137;49.406;19.484;2024-02-21T08:17:55;9.30;99.90
19952;DHT22;10137;49.406;19.484;2024-02-21T08:20:25;9.30;99.90
19952;DHT22;10137;49.406;19.484;2024-02-21T08:22:52;9.20;99.90
19952;DHT22;10137;49.406;19.484;2024-02-21T08:25:20;9.20;99.90
19952;DHT22;10137;49.406;19.484;2024-02-21T08:27:47;9.30;99.90
19952;DHT22;10137;49.406;19.484;2024-02-21T08:30:14;9.20;99.90
19952;DHT22;10137;49.406;19.484;2024-02-21T08:32:43;9.10;99.90
19952;DHT22;10137;49.406;19.484;2024-02-21T08:35:09;8.90;99.90
19952;DHT22;10137;49.406;19.484;2024-02-21T08:37:37;9.00;99.90
19952;DHT22;10137;49.406;19.484;2024-02-21T08:40:09;8.90;99.90
19952;DHT22;10137;49.406;19.484;2024-02-21T08:42:39;8.90;99.90
19952;DHT22;10137;49.406;19.484;2024-02-21T08:45:06;8.90;99.90
19952;DHT22;10137;49.406;19.484;2024-02-21T08:47:33;8.70;99.90
19952;DHT22;10137;49.406;19.484;2024-02-21T08:50:01;8.60;99.90
19952;DHT22;10137;49.406;19.484;2024-02-21T08:52:28;8.50;99.90
19952;DHT22;10137;49.406;19.484;2024-02-21T08:54:55;8.40;99.90
19952;DHT22;10137;49.406;19.484;2024-02-21T08:57:22;8.10;99.90
19952;DHT22;10137;49.406;19.484;2024-02-21T08:59:50;8.00;99.90
19952;DHT22;10137;49.406;19.484;2024-02-21T09:02:17;7.80;99.90
19952;DHT22;10137;49.406;19.484;2024-02-21T09:04:45;7.70;99.90
19952;DHT22;10137;49.406;19.484;2024-02-21T09:07:12;7.70;99.90
19952;DHT22;10137;49.406;19.484;2024-02-21T09:09:39;7.60;99.90
19952;DHT22;10137;49.406;19.484;2024-02-21T09:12:06;7.70;99.90
19952;DHT22;10137;49.406;19.484;2024-02-21T09:14:34;7.90;99.90
19952;DHT22;10137;49.406;19.484;2024-02-21T09:17:02;8.00;99.90
19952;DHT22;10137;49.406;19.484;2024-02-21T09:19:29;8.00;99.90
19952;DHT22;10137;49.406;19.484;2024-02-21T09:21:56;8.00;99.90
19952;DHT22;10137;49.406;19.484;2024-02-21T09:24:23;8.00;99.90
19952;DHT22;10137;49.406;19.484;2024-02-21T09:26:50;8.00;99.90
19952;DHT22;10137;49.406;19.484;2024-02-21T09:29:17;7.70;99.90
19952;DHT22;10137;49.406;19.484;2024-02-21T09:31:43;7.70;99.90
19952;DHT22;10137;49.406;19.484;2024-02-21T09:34:12;7.70;99.90
19952;DHT22;10137;49.406;19.484;2024-02-21T09:36:39;7.40;99.90
19952;DHT22;10137;49.406;19.484;2024-02-21T09:39:06;7.40;99.90
19952;DHT22;10137;49.406;19.484;2024-02-21T09:41:36;7.20;99.90
19952;DHT22;10137;49.406;19.484;2024-02-21T09:44:05;7.10;99.90
19952;DHT22;10137;49.406;19.484;2024-02-21T09:46:40;7.20;99.90
19952;DHT22;10137;49.406;19.484;2024-02-21T09:49:20;7.20;99.90
19952;DHT22;10137;49.406;19.484;2024-02-21T09:51:50;7.20;99.90
19952;DHT22;10137;49.406;19.484;2024-02-21T09:54:18;7.20;99.90
19952;DHT22;10137;49.406;19.484;2024-02-21T09:56:46;7.20;99.90
19952;DHT22;10137;49.406;19.484;2024-02-21T09:59:14;7.10;99.90
19952;DHT22;10137;49.406;19.484;2024-02-21T10:01:43;7.00;99.90
19952;DHT22;10137;49.406;19.484;2024-02-21T10:04:10;6.80;99.90
19952;DHT22;10137;49.406;19.484;2024-02-21T10:11:49;6.90;99.90
19952;DHT22;10137;49.406;19.484;2024-02-21T10:14:17;6.90;99.90
19952;DHT22;10137;49.406;19.484;2024-02-21T10:16:44;6.90;99.90
19952;DHT22;10137;49.406;19.484;2024-02-21T10:19:18;6.70;99.90
19952;DHT22;10137;49.406;19.484;2024-02-21T10:22:01;6.50;99.90
19952;DHT22;10137;49.406;19.484;2024-02-21T10:24:29;6.60;99.90
19952;DHT22;10137;49.406;19.484;2024-02-21T10:29:33;6.50;99.90
19952;DHT22;10137;49.406;19.484;2024-02-21T10:32:07;6.40;99.90
19952;DHT22;10137;49.406;19.484;2024-02-21T10:34:34;6.40;99.90
19952;DHT22;10137;49.406;19.484;2024-02-21T10:37:02;6.50;99.90
19952;DHT22;10137;49.406;19.484;2024-02-21T10:39:29;6.40;99.90
19952;DHT22;10137;49.406;19.484;2024-02-21T10:42:00;6.50;99.90
19952;DHT22;10137;49.406;19.484;2024-02-21T10:44:29;6.60;99.90
19952;DHT22;10137;49.406;19.484;2024-02-21T10:46:58;6.70;99.90
19952;DHT22;10137;49.406;19.484;2024-02-21T10:49:26;6.80;99.90
19952;DHT22;10137;49.406;19.484;2024-02-21T10:51:55;6.90;99.90
19952;DHT22;10137;49.406;19.484;2024-02-21T10:54:35;6.90;99.90
19952;DHT22;10137;49.406;19.484;2024-02-21T10:57:04;6.90;99.90
19952;DHT22;10137;49.406;19.484;2024-02-21T10:59:32;6.90;99.90
19952;DHT22;10137;49.406;19.484;2024-02-21T11:02:01;6.80;99.90
19952;DHT22;10137;49.406;19.484;2024-02-21T11:04:28;6.80;99.90
19952;DHT22;10137;49.406;19.484;2024-02-21T11:06:56;6.80;99.90
19952;DHT22;10137;49.406;19.484;2024-02-21T11:09:29;6.90;99.90
19952;DHT22;10137;49.406;19.484;2024-02-21T11:11:57;7.10;99.90
19952;DHT22;10137;49.406;19.484;2024-02-21T11:14:27;7.10;99.90
19952;DHT22;10137;49.406;19.484;2024-02-21T11:16:54;7.60;99.90
19952;DHT22;10137;49.406;19.484;2024-02-21T11:19:25;8.00;99.90
19952;DHT22;10137;49.406;19.484;2024-02-21T11:21:53;8.60;99.90
19952;DHT22;10137;49.406;19.484;2024-02-21T11:24:27;8.50;99.90
19952;DHT22;10137;49.406;19.484;2024-02-21T11:26:55;8.30;99.90
19952;DHT22;10137;49.406;19.484;2024-02-21T11:29:25;8.10;99.90
19952;DHT22;10137;49.406;19.484;2024-02-21T11:31:54;7.90;99.90
19952;DHT22;10137;49.406;19.484;2024-02-21T11:34:21;7.80;99.90
19952;DHT22;10137;49.406;19.484;2024-02-21T11:36:51;7.70;99.90
19952;DHT22;10137;49.406;19.484;2024-02-21T11:39:22;7.50;99.90
19952;DHT22;10137;49.406;19.484;2024-02-21T11:42:01;7.50;99.90
19952;DHT22;10137;49.406;19.484;2024-02-21T11:44:29;7.40;99.90
19952;DHT22;10137;49.406;19.484;2024-02-21T11:46:56;7.40;99.90
19952;DHT22;10137;49.406;19.484;2024-02-21T11:49:25;7.40;99.90
19952;DHT22;10137;49.406;19.484;2024-02-21T11:51:59;7.40;99.90
19952;DHT22;10137;49.406;19.484;2024-02-21T11:54:29;7.30;99.90
19952;DHT22;10137;49.406;19.484;2024-02-21T11:56:56;7.40;99.90
19952;DHT22;10137;49.406;19.484;2024-02-21T11:59:23;7.40;99.90
19952;DHT22;10137;49.406;19.484;2024-02-21T12:01:50;7.40;99.90
19952;DHT22;10137;49.406;19.484;2024-02-21T12:04:17;7.40;99.90
19952;DHT22;10137;49.406;19.484;2024-02-21T12:06:45;7.40;99.90
19952;DHT22;10137;49.406;19.484;2024-02-21T12:09:15;7.40;99.90
19952;DHT22;10137;49.406;19.484;2024-02-21T12:11:43;7.50;99.90
19952;DHT22;10137;49.406;19.484;2024-02-21T12:14:10;7.60;99.90
19952;DHT22;10137;49.406;19.484;2024-02-21T12:16:37;7.50;99.90
19952;DHT22;10137;49.406;19.484;2024-02-21T12:19:04;7.50;99.90
19952;DHT22;10137;49.406;19.484;2024-02-21T12:21:32;7.50;99.90
19952;DHT22;10137;49.406;19.484;2024-02-21T12:24:11;7.50;99.90
19952;DHT22;10137;49.406;19.484;2024-02-21T12:26:40;7.50;99.90
19952;DHT22;10137;49.406;19.484;2024-02-21T12:29:08;7.50;99.90
19952;DHT22;10137;49.406;19.484;2024-02-21T12:31:35;7.40;99.90
19952;DHT22;10137;49.406;19.484;2024-02-21T12:34:03;7.50;99.90
19952;DHT22;10137;49.406;19.484;2024-02-21T12:36:30;7.50;99.90
19952;DHT22;10137;49.406;19.484;2024-02-21T12:38:56;7.50;99.90
19952;DHT22;10137;49.406;19.484;2024-02-21T12:41:23;7.50;99.90
19952;DHT22;10137;49.406;19.484;2024-02-21T12:43:53;7.40;99.90
19952;DHT22;10137;49.406;19.484;2024-02-21T12:46:21;7.50;99.90
19952;DHT22;10137;49.406;19.484;2024-02-21T12:48:49;7.40;99.90
19952;DHT22;10137;49.406;19.484;2024-02-21T12:51:16;7.10;99.90
19952;DHT22;10137;49.406;19.484;2024-02-21T12:53:46;7.30;99.90
19952;DHT22;10137;49.406;19.484;2024-02-21T12:56:15;7.30;99.90
19952;DHT22;10137;49.406;19.484;2024-02-21T12:58:42;7.30;99.90
19952;DHT22;10137;49.406;19.484;2024-02-21T13:01:10;7.30;99.90
19952;DHT22;10137;49.406;19.484;2024-02-21T13:03:37;7.20;99.90
19952;DHT22;10137;49.406;19.484;2024-02-21T13:06:05;7.30;99.90
19952;DHT22;10137;49.406;19.484;2024-02-21T13:08:32;7.30;99.90
19952;DHT22;10137;49.406;19.484;2024-02-21T13:11:00;7.30;99.90
19952;DHT22;10137;49.406;19.484;2024-02-21T13:13:27;7.30;99.90
19952;DHT22;10137;49.406;19.484;2024-02-21T13:15:53;7.10;99.90
19952;DHT22;10137;49.406;19.484;2024-02-21T13:18:22;7.10;99.90
19952;DHT22;10137;49.406;19.484;2024-02-21T13:20:48;7.10;99.90
19952;DHT22;10137;49.406;19.484;2024-02-21T13:23:15;7.00;99.90
19952;DHT22;10137;49.406;19.484;2024-02-21T13:25:42;7.00;99.90
19952;DHT22;10137;49.406;19.484;2024-02-21T13:28:14;7.00;99.90
19952;DHT22;10137;49.406;19.484;2024-02-21T13:30:42;7.00;99.90
19952;DHT22;10137;49.406;19.484;2024-02-21T13:33:08;7.00;99.90
19952;DHT22;10137;49.406;19.484;2024-02-21T13:35:37;6.90;99.90
19952;DHT22;10137;49.406;19.484;2024-02-21T13:38:04;6.90;99.90
19952;DHT22;10137;49.406;19.484;2024-02-21T13:40:31;6.90;99.90
19952;DHT22;10137;49.406;19.484;2024-02-21T13:42:58;6.80;99.90
19952;DHT22;10137;49.406;19.484;2024-02-21T13:45:26;6.70;99.90
19952;DHT22;10137;49.406;19.484;2024-02-21T13:47:53;6.70;99.90
19952;DHT22;10137;49.406;19.484;2024-02-21T13:50:25;6.70;99.90
19952;DHT22;10137;49.406;19.484;2024-02-21T13:52:57;6.70;99.90
19952;DHT22;10137;49.406;19.484;2024-02-21T13:55:24;6.60;99.90
19952;DHT22;10137;49.406;19.484;2024-02-21T13:57:52;6.70;99.90
19952;DHT22;10137;49.406;19.484;2024-02-21T14:00:19;6.60;99.90
19952;DHT22;10137;49.406;19.484;2024-02-21T14:02:46;6.60;99.90
19952;DHT22;10137;49.406;19.484;2024-02-21T14:05:15;6.60;99.90
19952;DHT22;10137;49.406;19.484;2024-02-21T14:07:42;6.50;99.90
19952;DHT22;10137;49.406;19.484;2024-02-21T14:10:10;6.50;99.90
19952;DHT22;10137;49.406;19.484;2024-02-21T14:12:37;6.60;99.90
19952;DHT22;10137;49.406;19.484;2024-02-21T14:15:06;6.60;99.90
19952;DHT22;10137;49.406;19.484;2024-02-21T14:17:34;6.60;99.90
19952;DHT22;10137;49.406;19.484;2024-02-21T14:20:01;6.60;99.90
19952;DHT22;10137;49.406;19.484;2024-02-21T14:22:28;6.50;99.90
19952;DHT22;10137;49.406;19.484;2024-02-21T14:24:55;6.40;99.90
19952;DHT22;10137;49.406;19.484;2024-02-21T14:27:24;6.40;99.90
19952;DHT22;10137;49.406;19.484;2024-02-21T14:29:51;6.30;99.90
19952;DHT22;10137;49.406;19.484;2024-02-21T14:32:19;6.30;99.90
19952;DHT22;10137;49.406;19.484;2024-02-21T14:34:46;6.20;99.90
19952;DHT22;10137;49.406;19.484;2024-02-21T14:37:13;6.20;99.90
19952;DHT22;10137;49.406;19.484;2024-02-21T14:39:40;6.10;99.90
19952;DHT22;10137;49.406;19.484;2024-02-21T14:42:07;5.90;99.90
19952;DHT22;10137;49.406;19.484;2024-02-21T14:44:36;5.90;99.90
19952;DHT22;10137;49.406;19.484;2024-02-21T14:47:03;5.80;99.90
19952;DHT22;10137;49.406;19.484;2024-02-21T14:49:30;5.90;99.90
19952;DHT22;10137;49.406;19.484;2024-02-21T14:51:57;5.80;99.90
19952;DHT22;10137;49.406;19.484;2024-02-21T14:54:24;5.90;99.90
19952;DHT22;10137;49.406;19.484;2024-02-21T14:56:51;5.80;99.90
19952;DHT22;10137;49.406;19.484;2024-02-21T14:59:20;5.70;99.90
19952;DHT22;10137;49.406;19.484;2024-02-21T15:01:48;5.80;99.90
19952;DHT22;10137;49.406;19.484;2024-02-21T15:04:15;5.80;99.90
19952;DHT22;10137;49.406;19.484;2024-02-21T15:06:42;5.80;99.90
19952;DHT22;10137;49.406;19.484;2024-02-21T15:09:10;5.90;99.90
19952;DHT22;10137;49.406;19.484;2024-02-21T15:11:37;5.90;99.90
19952;DHT22;10137;49.406;19.484;2024-02-21T15:14:04;5.80;99.90
19952;DHT22;10137;49.406;19.484;2024-02-21T15:16:31;5.80;99.90
19952;DHT22;10137;49.406;19.484;2024-02-21T15:19:00;5.80;99.90
19952;DHT22;10137;49.406;19.484;2024-02-21T15:21:28;5.70;99.90
19952;DHT22;10137;49.406;19.484;2024-02-21T15:23:56;5.70;99.90
19952;DHT22;10137;49.406;19.484;2024-02-21T15:26:23;5.60;99.90
19952;DHT22;10137;49.406;19.484;2024-02-21T15:28:51;5.60;99.90
19952;DHT22;10137;49.406;19.484;2024-02-21T15:31:21;5.70;99.90
19952;DHT22;10137;49.406;19.484;2024-02-21T15:33:49;5.60;99.90
19952;DHT22;10137;49.406;19.484;2024-02-21T15:36:17;5.60;99.90
19952;DHT22;10137;49.406;19.484;2024-02-21T15:38:45;5.60;99.90
19952;DHT22;10137;49.406;19.484;2024-02-21T15:41:12;5.60;99.90